Latest Coastal Weather Observations for Townsville

IDQ60701

Issued at 2:15 pm EST Monday 22 September 2014 (issued every 10 minutes, with the page automatically refreshed every 10 minutes)

About coastal observations | Map of coastal stations | Coastal observations for QLD | Marine services | Other Formats
Station Details ID: 032040 Name: TOWNSVILLE AERO Lat: -19.25 Lon: 146.77 Height: 4.34 m
Data from the previous 72 hours. | See also: Recent months at Townsville
Date/Time
EST
Temp

°C
Wind Pressure Rain
since 9am
mm
Weather Cloud Vis
km
Sea
Height
m
Swell
Dir
 
Speed
knots
Gust
knots
hPa Trend Height
m
Period
s
Dir
22/02:00pm 26.9 ENE 17 21 1015.6 - 0.0 - Partly cloudy 10 - - - -
22/01:30pm 26.3 ENE 16 21 1016.0 - 0.0 - Partly cloudy 10 - - - -
22/01:00pm 26.8 ENE 16 20 1016.6 - 0.0 - Partly cloudy 10 - - - -
22/12:30pm 26.6 ENE 16 20 1016.8 - 0.0 - Partly cloudy 10 - - - -
22/12:00pm 26.8 NE 16 20 1017.4 S 0.0 Distant precip. Partly cloudy 15 - - - -
22/11:30am 26.9 ENE 15 19 1017.8 - 0.0 - Partly cloudy 10 - - - -
22/11:00am 26.5 ENE 16 21 1018.1 - 0.0 - Partly cloudy 10 - - - -
22/10:30am 27.0 ENE 14 18 1018.5 - 0.0 - Partly cloudy 10 - - - -
22/10:00am 26.0 ENE 15 19 1018.6 - 0.0 - Partly cloudy 10 - - - -
22/09:30am 26.1 ENE 15 18 1018.7 - 0.0 - Partly cloudy 10 - - - -
22/09:00am 24.8 ENE 13 17 1018.8 R 5.4 Distant precip. Mostly cloudy 15 - - - -
22/08:30am 23.5 ENE 13 18 1018.7 - 5.4 Showers Mostly clear 9 - - - -
22/08:00am 22.0 SE 6 8 1018.4 - 5.2 Showers Mostly clear 10 - - - -
22/07:30am 21.6 SSE 9 11 1017.9 - 5.0 - Mostly clear 10 - - - -
22/07:00am 23.3 ENE 13 18 1017.6 - 5.0 - Partly cloudy 10 - - - -
22/06:30am 23.0 ENE 13 16 1017.3 - 5.0 - Partly cloudy 10 - - - -
22/06:00am 22.3 ENE 13 15 1016.8 F 5.0 Distant precip. Mostly cloudy 15 - - - -
22/05:30am 22.5 ENE 11 15 1016.7 - 5.0 - Partly cloudy 10 - - - -
22/05:00am 22.5 ENE 13 17 1016.4 - 5.0 - Partly cloudy 10 - - - -
22/04:30am 22.4 E 11 16 1016.2 - 5.0 - Partly cloudy 10 - - - -
22/04:00am 22.4 ENE 16 20 1015.8 - 5.0 - Partly cloudy 10 - - - -
22/03:30am 22.3 E 14 18 1016.0 - 5.0 - Partly cloudy 10 - - - -
22/03:00am 22.2 E 14 19 1016.3 - 5.0 - Cloudy 10 - - - -
22/02:30am 21.9 E 15 20 1016.6 - 5.0 - Partly cloudy 10 - - - -
22/02:00am 21.5 E 12 17 1016.8 - 5.0 - Partly cloudy 10 - - - -
22/01:43am 20.8 E 12 16 1016.9 - 5.0 - Partly cloudy 10 - - - -
22/01:30am 20.8 E 14 18 1017.2 - 4.8 - Partly cloudy 5 - - - -
22/01:18am 21.0 ENE 15 20 1017.5 - 1.4 - Partly cloudy 6 - - - -
22/01:00am 22.7 E 9 13 1017.7 - 0.0 - Partly cloudy 10 - - - -
22/12:30am 22.7 E 11 16 1018.0 - 0.0 - Partly cloudy 10 - - - -
22/12:00am 22.9 E 13 17 1018.1 - 0.0 - Cloudy 10 - - - -
 
Date/Time
EST
Temp

°C
Wind Pressure Rain
since 9am
mm
Weather Cloud Vis
km
Sea
Height
m
Swell
Dir
 
Speed
knots
Gust
knots
hPa Trend Height
m
Period
s
Dir
21/11:30pm 23.2 E 15 19 1018.4 - 0.0 - Partly cloudy 10 - - - -
21/11:00pm 23.3 E 13 18 1019.5 - 0.0 - Partly cloudy 10 - - - -
21/10:30pm 23.3 E 15 21 1018.6 - 0.0 - Partly cloudy 10 - - - -
21/10:00pm 23.5 E 16 22 1018.4 - 0.0 - Partly cloudy 10 - - - -
21/09:30pm 23.5 E 17 23 1018.1 - 0.0 - Partly cloudy 10 - - - -
21/09:00pm 23.5 E 15 19 1018.6 - 0.0 - Cloudy 10 - - - -
21/08:30pm 23.5 E 14 19 1018.3 - 0.0 - Partly cloudy 10 - - - -
21/08:00pm 23.7 E 14 18 1018.2 - 0.0 - Partly cloudy 10 - - - -
21/07:30pm 23.7 E 11 15 1018.0 - 0.0 - Partly cloudy 10 - - - -
21/07:00pm 23.5 E 14 18 1017.7 - 0.0 - Partly cloudy 10 - - - -
21/06:30pm 23.4 E 14 18 1017.1 - 0.0 - Partly cloudy 10 - - - -
21/06:00pm 23.7 E 15 19 1016.9 - 0.0 - - 10 - - - -
21/05:30pm 24.2 ENE 15 19 1016.8 - 0.0 - - 10 - - - -
21/05:00pm 24.9 ENE 14 18 1016.9 - 0.0 - Mostly clear 10 - - - -
21/04:30pm 25.5 ENE 16 19 1016.8 - 0.0 - Mostly clear 10 - - - -
21/04:00pm 26.0 E 16 20 1016.7 - 0.0 - Mostly clear 10 - - - -
21/03:30pm 26.4 E 16 21 1016.8 - 0.0 - Mostly clear 10 - - - -
21/03:00pm 26.5 E 16 20 1016.9 R 0.0 Haze Mostly cloudy 15 - - - -
21/02:30pm 27.1 ENE 15 19 1017.0 - 0.0 - Partly cloudy 10 - - - -
21/02:00pm 26.5 ENE 16 19 1017.1 - 0.0 - Partly cloudy 10 - - - -
21/01:30pm 26.5 ENE 16 20 1017.2 - 0.0 - Mostly clear 10 - - - -
21/01:00pm 26.8 ENE 17 22 1017.4 - 0.0 - Mostly clear 10 - - - -
21/12:30pm 26.6 ENE 17 21 1017.6 - 0.0 - Mostly clear 10 - - - -
21/12:00pm 26.9 ENE 17 21 1018.0 R 0.0 Distant precip. Mostly cloudy 15 - - - -
21/11:30am 26.7 ENE 17 21 1018.5 - 0.0 - Mostly clear 10 - - - -
21/11:00am 26.5 ENE 17 21 1018.6 - 0.0 - Mostly clear 10 - - - -
21/10:30am 26.5 ENE 14 19 1018.9 - 0.0 - Mostly clear 10 - - - -
21/10:00am 26.7 ENE 14 17 1018.9 - 0.0 - Partly cloudy 10 - - - -
21/09:30am 26.1 ENE 14 17 1018.7 - 0.0 - Partly cloudy 10 - - - -
21/09:00am 25.7 ENE 13 16 1019.0 R 0.0 Haze Mostly cloudy 20 - - - -
21/08:30am 25.2 ENE 15 18 1018.7 - 0.0 - Partly cloudy 10 - - - -
21/08:00am 24.7 ENE 13 17 1018.3 - 0.0 - Partly cloudy 10 - - - -
21/07:30am 24.8 E 13 18 1017.9 - 0.0 - Partly cloudy 10 - - - -
21/07:00am 23.4 ESE 6 11 1017.6 - 0.0 - Mostly clear 10 - - - -
21/06:30am 22.1 ESE 6 8 1017.3 - 0.0 - Mostly clear 10 - - - -
21/06:00am 21.1 ESE 6 7 1017.1 R 0.0 Haze Mostly cloudy 20 - - - -
21/05:30am 21.4 SE 7 9 1016.9 - 0.0 - Partly cloudy 10 - - - -
21/05:00am 21.4 SE 8 9 1016.5 - 0.0 - Partly cloudy 10 - - - -
21/04:30am 21.9 ESE 8 10 1016.2 - 0.0 - Partly cloudy 10 - - - -
21/04:00am 21.9 ESE 7 9 1015.9 - 0.0 - Partly cloudy 10 - - - -
21/03:30am 21.6 SE 6 7 1015.9 - 0.0 - Partly cloudy 10 - - - -
21/03:00am 22.0 E 5 5 1016.0 - 0.0 - Cloudy 10 - - - -
21/02:30am 22.5 E 7 9 1016.3 - 0.0 - Partly cloudy 10 - - - -
21/02:00am 22.8 E 9 12 1016.8 - 0.0 - Partly cloudy 10 - - - -
21/01:30am 22.6 ENE 9 14 1017.1 - 0.0 - - 10 - - - -
21/01:00am 22.9 E 9 11 1017.7 - 0.0 - Partly cloudy 10 - - - -
21/12:30am 23.2 E 9 15 1017.8 - 0.0 - Partly cloudy 10 - - - -
21/12:00am 22.9 E 10 14 1018.0 - 0.0 - Cloudy 10 - - - -
 
Date/Time
EST
Temp

°C
Wind Pressure Rain
since 9am
mm
Weather Cloud Vis
km
Sea
Height
m
Swell
Dir
 
Speed
knots
Gust
knots
hPa Trend Height
m
Period
s
Dir
20/11:30pm 23.0 E 11 14 1017.9 - 0.0 - - 10 - - - -
20/11:00pm 23.1 E 12 16 1018.0 - 0.0 - Partly cloudy 10 - - - -
20/10:30pm 23.2 ENE 12 16 1018.0 - 0.0 - - 10 - - - -
20/10:00pm 23.2 E 13 15 1017.9 - 0.0 - Partly cloudy 10 - - - -
20/09:30pm 23.3 ENE 11 15 1017.7 - 0.0 - - 10 - - - -
20/09:00pm 23.3 ENE 9 12 1017.6 - 0.0 - - 10 - - - -
20/08:30pm 22.9 NE 7 9 1017.3 - 0.0 - - 10 - - - -
20/08:00pm 22.6 ENE 8 9 1017.0 - 0.0 - - 10 - - - -
20/07:30pm 23.0 NE 7 9 1016.5 - 0.0 - - 10 - - - -
20/07:00pm 23.0 NNE 5 7 1016.1 - 0.0 - - 10 - - - -
20/06:30pm 23.4 NE 8 9 1015.5 - 0.0 - - 10 - - - -
20/06:00pm 23.8 N 7 9 1014.9 - 0.0 - - 10 - - - -
20/05:30pm 24.7 NE 9 10 1014.4 - 0.0 - - 10 - - - -
20/05:00pm 24.9 ENE 11 13 1014.0 - 0.0 - Mostly clear 10 - - - -
20/04:30pm 24.7 ENE 13 16 1013.6 - 0.0 - Mostly clear 10 - - - -
20/04:00pm 26.6 ENE 14 18 1013.3 - 0.0 - Mostly clear 10 - - - -
20/03:30pm 26.1 ENE 15 18 1013.2 - 0.0 - Mostly clear 10 - - - -
20/03:00pm 27.1 ENE 15 18 1013.3 F 0.0 Haze Mostly cloudy 30 - - - -
20/02:30pm 27.2 ENE 13 17 1013.6 - 0.0 - Mostly clear 10 - - - -
20/02:00pm 27.4 NE 11 16 1014.0 - 0.0 - Mostly clear 10 - - - -
20/01:30pm 27.2 NE 10 14 1014.5 - 0.0 - Mostly clear 10 - - - -
20/01:00pm 26.9 NNE 10 15 1015.1 - 0.0 - Mostly clear 10 - - - -
20/12:30pm 26.8 NNE 12 15 1015.7 - 0.0 - Mostly clear 10 - - - -
20/12:00pm 26.2 NE 10 15 1016.3 F 0.0 Haze Mostly clear 30 - - - -
20/11:30am 25.9 NE 9 13 1016.8 - 0.0 - Mostly clear 10 - - - -
20/11:00am 27.0 NE 9 12 1017.3 - 0.0 - Mostly clear 10 - - - -
20/10:30am 25.9 ENE 7 10 1017.8 - 0.0 - Mostly clear 10 - - - -
20/10:00am 26.1 ENE 8 10 1018.2 - 0.0 - Partly cloudy 10 - - - -
20/09:30am 25.8 NNE 6 10 1018.5 - 0.0 - Partly cloudy 10 - - - -
20/09:00am 25.5 W 4 5 1018.6 F 0.0 Fine Partly cloudy 30 - - - -
20/08:30am 23.9 E 1 5 1018.6 - 0.0 - Mostly clear 10 - - - -
20/08:00am 22.8 S 3 5 1018.4 - 0.0 - Mostly clear 10 - - - -
20/07:30am 20.0 CALM 0 0 1018.0 - 0.0 - Mostly clear 10 - - - -
20/07:00am 17.8 WNW 1 4 1017.6 - 0.0 - Mostly clear 10 - - - -
20/06:30am 16.0 WSW 2 4 1017.5 - 0.0 Shallow fog Mostly clear 10 - - - -
20/06:00am 18.1 S 4 5 1017.1 F 0.0 Shallow fog Mostly clear 15 - - - -
20/05:30am 18.7 CALM 0 0 1016.8 - 0.0 - - 10 - - - -
20/05:00am 18.7 CALM 0 0 1016.4 - 0.0 - - 10 - - - -
20/04:30am 18.1 S 4 4 1016.1 - 0.0 - - 10 - - - -
20/04:00am 18.9 S 3 4 1016.1 - 0.0 - - 10 - - - -
20/03:30am 19.1 S 4 5 1016.3 - 0.0 - - 10 - - - -
20/03:00am 19.7 S 4 5 1016.5 - 0.0 - - 10 - - - -
20/02:30am 19.9 SW 4 4 1016.5 - 0.0 - - 10 - - - -
20/02:00am 20.1 CALM 0 0 1016.8 - 0.0 - - 10 - - - -
20/01:30am 20.3 N 1 4 1017.1 - 0.0 - Partly cloudy 10 - - - -
20/01:00am 19.8 CALM 0 0 1017.5 - 0.0 - Partly cloudy 10 - - - -
20/12:30am 21.8 N 5 6 1017.7 - 0.0 - Partly cloudy 10 - - - -
20/12:00am 19.8 CALM 0 3 1017.9 - 0.0 - Cloudy 10 - - - -
 
Date/Time
EST
Temp

°C
Wind Pressure Rain
since 9am
mm
Weather Cloud Vis
km
Sea
Height
m
Swell
Dir
 
Speed
knots
Gust
knots
hPa Trend Height
m
Period
s
Dir
19/11:30pm 20.0 CALM 0 2 1017.8 - 0.0 - Partly cloudy 10 - - - -
19/11:00pm 20.6 N 3 4 1017.8 - 0.0 - Partly cloudy 10 - - - -
19/10:30pm 21.9 NE 6 8 1017.8 - 0.0 - Partly cloudy 10 - - - -
19/10:00pm 21.9 ENE 7 8 1018.0 - 0.0 - Partly cloudy 10 - - - -
19/09:30pm 22.2 ENE 9 11 1017.9 - 0.0 - Partly cloudy 10 - - - -
19/09:00pm 22.1 ENE 8 13 1017.7 - 0.0 - - 10 - - - -
19/08:30pm 22.2 ENE 8 10 1017.5 - 0.0 - - 10 - - - -
19/08:00pm 21.8 ENE 7 10 1017.1 - 0.0 - - 10 - - - -
19/07:30pm 22.3 ENE 8 9 1016.7 - 0.0 - - 10 - - - -
19/07:00pm 22.5 ENE 9 13 1016.4 - 0.0 - - 10 - - - -
19/06:30pm 22.6 ENE 9 11 1016.0 - 0.0 - - 10 - - - -
19/06:00pm 23.0 ENE 9 11 1015.8 - 0.0 - - 10 - - - -
19/05:30pm 23.8 ENE 11 14 1015.5 - 0.0 - Mostly clear 10 - - - -
19/05:00pm 24.3 ENE 13 16 1015.3 - 0.0 - Mostly clear 10 - - - -
19/04:30pm 25.3 ENE 11 14 1015.0 - 0.0 - Mostly clear 10 - - - -
19/04:00pm 25.3 NE 10 12 1015.0 - 0.0 - Mostly clear 10 - - - -
19/03:30pm 26.2 ENE 9 14 1015.1 - 0.0 - Mostly clear 10 - - - -
19/03:00pm 26.1 ENE 9 13 1015.3 R 0.0 Haze Mostly cloudy 30 - - - -
19/02:30pm 26.3 NE 10 14 1015.6 - 0.0 - Mostly clear 10 - - - -

Other Formats:

Comma delimited format used in spreadsheet applications
http://www.bom.gov.au/fwo/IDQ60701/IDQ60701.94294.axf

JavaScript Object Notation format (JSON) in row-major order
http://www.bom.gov.au/fwo/IDQ60701/IDQ60701.94294.json